createdAt,value
2023-01-28T00:01:31.482Z,18.33
2023-01-28T00:03:58.269Z,17.63
2023-01-28T00:06:25.335Z,18.02
2023-01-28T00:08:52.110Z,17.42
2023-01-28T00:11:18.972Z,18.83
2023-01-28T00:13:45.913Z,19.63
2023-01-28T00:16:12.787Z,18.13
2023-01-28T00:18:39.738Z,17.75
2023-01-28T00:21:13.618Z,17.85
2023-01-28T00:23:41.468Z,24.35
2023-01-28T00:26:12.810Z,19.00
2023-01-28T00:28:43.199Z,18.10
2023-01-28T00:31:27.251Z,17.60
2023-01-28T00:33:54.771Z,17.38
2023-01-28T00:36:23.020Z,16.40
2023-01-28T00:38:51.261Z,18.67
2023-01-28T00:41:18.879Z,16.95
2023-01-28T00:43:45.693Z,16.63
2023-01-28T00:46:13.850Z,17.15
2023-01-28T00:48:41.285Z,17.80
2023-01-28T00:51:08.651Z,16.15
2023-01-28T00:53:36.282Z,16.00
2023-01-28T00:56:03.831Z,16.27
2023-01-28T00:58:33.164Z,17.35
2023-01-28T01:01:10.687Z,17.13
2023-01-28T01:03:37.679Z,17.00
2023-01-28T01:06:04.883Z,16.17
2023-01-28T01:08:40.135Z,15.60
2023-01-28T01:11:07.398Z,16.15
2023-01-28T01:13:36.920Z,17.10
2023-01-28T01:16:10.577Z,18.23
2023-01-28T01:18:38.003Z,17.08
2023-01-28T01:21:11.822Z,16.40
2023-01-28T01:23:38.604Z,16.50
2023-01-28T01:26:05.748Z,16.17
2023-01-28T01:28:32.644Z,16.33
2023-01-28T01:31:10.405Z,16.88
2023-01-28T01:33:37.306Z,16.95
2023-01-28T01:36:04.154Z,17.50
2023-01-28T01:38:30.971Z,16.88
2023-01-28T01:40:59.458Z,17.30
2023-01-28T01:43:52.844Z,15.75
2023-01-28T01:46:46.126Z,14.70
2023-01-28T01:49:22.069Z,15.30
2023-01-28T01:51:51.320Z,16.20
2023-01-28T01:54:18.188Z,16.42
2023-01-28T01:56:45.379Z,15.82
2023-01-28T01:59:13.878Z,14.63
2023-01-28T02:01:40.818Z,15.38
2023-01-28T02:04:20.776Z,15.27
2023-01-28T02:06:47.717Z,14.70
2023-01-28T02:09:36.033Z,14.82
2023-01-28T02:12:14.220Z,14.57
2023-01-28T02:15:05.524Z,14.50
2023-01-28T02:17:32.368Z,14.35
2023-01-28T02:20:10.638Z,14.82
2023-01-28T02:23:12.726Z,14.93
2023-01-28T02:25:45.490Z,14.52
2023-01-28T02:28:34.078Z,15.07
2023-01-28T02:31:34.720Z,14.95
2023-01-28T02:34:23.305Z,14.70
2023-01-28T02:37:03.241Z,14.38
2023-01-28T02:39:32.280Z,13.73
2023-01-28T02:42:02.287Z,14.23
2023-01-28T02:44:29.225Z,13.15
2023-01-28T02:47:14.738Z,13.60
2023-01-28T02:49:50.331Z,14.02
2023-01-28T02:52:42.451Z,14.43
2023-01-28T02:55:20.751Z,13.55
2023-01-28T02:57:58.399Z,15.07
2023-01-28T03:00:39.496Z,13.23
2023-01-28T03:03:12.618Z,13.07
2023-01-28T03:05:42.515Z,13.50
2023-01-28T03:08:49.123Z,13.82
2023-01-28T03:11:39.427Z,13.55
2023-01-28T03:14:27.989Z,12.82
2023-01-28T03:17:13.678Z,14.43
2023-01-28T03:19:58.851Z,13.25
2023-01-28T03:22:44.440Z,13.68
2023-01-28T03:25:35.316Z,13.88
2023-01-28T03:28:24.224Z,13.82
2023-01-28T03:31:18.511Z,13.40
2023-01-28T03:34:08.242Z,13.27
2023-01-28T03:36:47.465Z,12.68
2023-01-28T03:39:31.141Z,11.95
2023-01-28T03:42:08.045Z,13.30
2023-01-28T03:44:54.120Z,13.77
2023-01-28T03:47:23.958Z,12.82
2023-01-28T03:49:52.224Z,12.93
2023-01-28T03:52:25.839Z,12.65
2023-01-28T03:54:56.128Z,12.02
2023-01-28T03:57:26.957Z,12.15
2023-01-28T03:59:54.113Z,11.77
2023-01-28T04:02:22.474Z,13.07
2023-01-28T04:04:51.571Z,12.80
2023-01-28T04:07:18.700Z,11.73
2023-01-28T04:10:04.247Z,12.48
2023-01-28T04:12:45.697Z,11.60
2023-01-28T04:15:16.068Z,11.98
2023-01-28T04:17:46.588Z,12.77
2023-01-28T04:20:20.232Z,11.70
2023-01-28T04:22:47.098Z,11.88
2023-01-28T04:25:15.464Z,12.25
2023-01-28T04:27:43.482Z,11.65
2023-01-28T04:30:16.372Z,12.32
2023-01-28T04:32:52.178Z,11.90
2023-01-28T04:35:34.791Z,11.20
2023-01-28T04:38:27.864Z,12.45
2023-01-28T04:41:14.892Z,11.32
2023-01-28T04:43:41.804Z,10.18
2023-01-28T04:46:30.498Z,11.35
2023-01-28T04:49:13.287Z,11.75
2023-01-28T04:52:00.323Z,10.98
2023-01-28T04:54:32.383Z,12.35
2023-01-28T04:57:02.085Z,10.93
2023-01-28T04:59:29.985Z,12.32
2023-01-28T05:01:56.898Z,12.02
2023-01-28T05:04:23.755Z,10.18
2023-01-28T05:06:52.161Z,10.68
2023-01-28T05:09:23.630Z,9.75
2023-01-28T05:11:51.563Z,9.95
2023-01-28T05:14:18.520Z,10.18
2023-01-28T05:16:50.619Z,10.13
2023-01-28T05:19:18.520Z,9.85
2023-01-28T05:21:46.536Z,10.52
2023-01-28T05:24:33.375Z,11.38
2023-01-28T05:27:00.314Z,10.50
2023-01-28T05:29:27.264Z,11.43
2023-01-28T05:31:54.087Z,12.15
2023-01-28T05:34:21.117Z,11.27
2023-01-28T05:36:48.197Z,10.38
2023-01-28T05:39:44.232Z,10.75
2023-01-28T05:42:11.179Z,10.05
2023-01-28T05:44:43.274Z,9.80
2023-01-28T05:49:51.679Z,8.68
2023-01-28T05:52:38.595Z,8.75
2023-01-28T05:55:10.297Z,9.15
2023-01-28T05:57:37.240Z,9.85
2023-01-28T06:00:07.177Z,11.25
2023-01-28T06:02:41.883Z,10.98
2023-01-28T06:05:11.571Z,9.55
2023-01-28T06:07:39.436Z,10.52
2023-01-28T06:10:10.038Z,10.13
2023-01-28T06:12:36.850Z,10.35
2023-01-28T06:15:22.429Z,8.98
2023-01-28T06:18:01.380Z,9.63
2023-01-28T06:23:01.859Z,8.80
2023-01-28T06:25:29.265Z,9.65
2023-01-28T06:28:00.121Z,9.65
2023-01-28T06:30:27.858Z,9.13
2023-01-28T06:32:55.687Z,9.60
2023-01-28T06:35:22.551Z,10.65
2023-01-28T06:37:49.349Z,9.23
2023-01-28T06:40:16.693Z,9.98
2023-01-28T06:42:43.606Z,10.30
2023-01-28T06:45:10.836Z,10.30
2023-01-28T06:47:39.710Z,9.55
2023-01-28T06:50:06.962Z,9.70
2023-01-28T06:52:33.760Z,9.82
2023-01-28T06:55:01.615Z,10.63
2023-01-28T06:57:28.395Z,8.82
2023-01-28T06:59:55.293Z,10.80
2023-01-28T07:02:22.208Z,10.65
2023-01-28T07:04:48.950Z,8.73
2023-01-28T07:07:15.923Z,11.00
2023-01-28T07:09:42.675Z,10.43
2023-01-28T07:12:09.459Z,10.65
2023-01-28T07:14:36.243Z,10.10
2023-01-28T07:17:03.007Z,11.43
2023-01-28T07:19:29.951Z,9.65
2023-01-28T07:22:00.687Z,11.10
2023-01-28T07:24:27.690Z,10.23
2023-01-28T07:26:54.545Z,9.95
2023-01-28T07:29:21.529Z,10.60
2023-01-28T07:31:48.379Z,20.25
2023-01-28T07:34:15.268Z,12.18
2023-01-28T07:36:42.050Z,14.52
2023-01-28T07:39:08.909Z,9.52
2023-01-28T07:41:35.689Z,10.10
2023-01-28T07:44:06.746Z,10.13
2023-01-28T07:46:33.488Z,9.68
2023-01-28T07:49:00.342Z,10.57
2023-01-28T07:51:27.114Z,8.93
2023-01-28T07:53:54.209Z,9.43
2023-01-28T07:56:20.962Z,8.27
2023-01-28T07:58:50.313Z,9.02
2023-01-28T08:01:18.251Z,10.48
2023-01-28T08:03:45.054Z,10.50
2023-01-28T08:06:12.127Z,10.00
2023-01-28T08:08:38.893Z,9.50
2023-01-28T08:11:11.719Z,10.40
2023-01-28T08:13:38.494Z,10.15
2023-01-28T08:16:05.779Z,10.68
2023-01-28T08:18:32.555Z,10.10
2023-01-28T08:20:59.520Z,9.45
2023-01-28T08:23:27.009Z,10.05
2023-01-28T08:25:53.938Z,10.85
2023-01-28T08:28:22.435Z,10.70
2023-01-28T08:30:49.366Z,9.73
2023-01-28T08:33:16.728Z,10.68
2023-01-28T08:35:43.474Z,9.98
2023-01-28T08:38:11.402Z,11.20
2023-01-28T08:40:38.138Z,14.90
2023-01-28T08:43:05.108Z,10.85
2023-01-28T08:45:32.011Z,11.43
2023-01-28T08:48:03.353Z,11.23
2023-01-28T08:50:32.820Z,11.55
2023-01-28T08:53:01.694Z,10.60
2023-01-28T08:55:29.919Z,10.88
2023-01-28T08:57:58.537Z,10.02
2023-01-28T09:00:25.673Z,11.57
2023-01-28T09:02:53.118Z,8.52
2023-01-28T09:05:20.235Z,11.25
2023-01-28T09:07:47.369Z,11.57
2023-01-28T09:10:14.895Z,12.02
2023-01-28T09:12:43.624Z,10.45
2023-01-28T09:15:10.787Z,10.68
2023-01-28T09:17:37.578Z,11.98
2023-01-28T09:20:05.370Z,12.15
2023-01-28T09:22:32.897Z,9.77
2023-01-28T09:24:59.666Z,10.27
2023-01-28T09:27:26.445Z,8.98
2023-01-28T09:29:53.195Z,8.23
2023-01-28T09:32:20.082Z,8.38
2023-01-28T09:34:46.843Z,9.75
2023-01-28T09:37:14.637Z,8.40
2023-01-28T09:39:41.513Z,9.13
2023-01-28T09:42:22.250Z,8.82
2023-01-28T09:44:59.245Z,9.50
2023-01-28T09:47:38.204Z,8.18
2023-01-28T09:50:14.655Z,7.95
2023-01-28T09:52:42.077Z,9.07
2023-01-28T09:55:40.953Z,9.18
2023-01-28T09:58:11.568Z,8.55
2023-01-28T10:00:51.847Z,7.00
2023-01-28T10:03:24.743Z,6.32
2023-01-28T10:06:10.093Z,7.05
2023-01-28T10:08:55.572Z,6.35
2023-01-28T10:11:46.945Z,6.40
2023-01-28T10:14:22.701Z,5.57
2023-01-28T10:16:56.183Z,5.75
2023-01-28T10:19:24.651Z,6.57
2023-01-28T10:22:16.024Z,6.40
2023-01-28T10:24:46.803Z,6.50
2023-01-28T10:27:17.149Z,6.88
2023-01-28T10:29:46.550Z,5.68
2023-01-28T10:32:25.514Z,6.50
2023-01-28T10:34:52.336Z,6.38
2023-01-28T10:37:19.446Z,5.93
2023-01-28T10:39:46.251Z,6.78
2023-01-28T10:42:31.996Z,6.22
2023-01-28T10:45:15.793Z,5.85
2023-01-28T10:48:02.503Z,6.13
2023-01-28T10:50:30.575Z,6.53
2023-01-28T10:53:02.844Z,6.30
2023-01-28T10:55:37.885Z,8.70
2023-01-28T10:58:04.758Z,6.63
2023-01-28T11:00:40.531Z,6.00
2023-01-28T11:03:18.016Z,6.47
2023-01-28T11:05:51.202Z,5.45
2023-01-28T11:08:18.457Z,6.85
2023-01-28T11:10:45.576Z,6.72
2023-01-28T11:13:23.127Z,6.35
2023-01-28T11:16:03.517Z,5.90
2023-01-28T11:18:32.217Z,6.28
2023-01-28T11:21:04.124Z,5.78
2023-01-28T11:23:35.922Z,7.05
2023-01-28T11:26:07.178Z,8.18
2023-01-28T11:28:34.052Z,6.20
2023-01-28T11:31:01.688Z,5.63
2023-01-28T11:33:37.595Z,7.45
2023-01-28T11:36:13.964Z,6.45
2023-01-28T11:38:56.712Z,8.48
2023-01-28T11:41:28.462Z,6.85
2023-01-28T11:43:55.560Z,4.68
2023-01-28T11:46:45.273Z,4.68
2023-01-28T11:49:38.515Z,3.72
2023-01-28T11:52:55.534Z,4.60
2023-01-28T11:55:40.654Z,4.30
2023-01-28T11:58:41.918Z,4.22
2023-01-28T12:01:29.779Z,3.95
2023-01-28T12:04:09.772Z,3.78
2023-01-28T12:06:58.457Z,4.20
2023-01-28T12:09:55.570Z,5.63
2023-01-28T12:12:55.812Z,4.88
2023-01-28T12:15:34.358Z,4.40
2023-01-28T12:18:07.449Z,5.68
2023-01-28T12:20:36.140Z,5.70
2023-01-28T12:23:09.780Z,9.40
2023-01-28T12:26:02.996Z,20.23
2023-01-28T12:28:44.758Z,15.27
2023-01-28T12:31:20.780Z,14.15
2023-01-28T12:33:59.456Z,6.78
2023-01-28T12:36:32.305Z,5.05
2023-01-28T12:39:14.076Z,7.07
2023-01-28T12:42:08.946Z,7.65
2023-01-28T12:45:00.371Z,5.93
2023-01-28T12:47:31.917Z,5.18
2023-01-28T12:50:02.536Z,5.72
2023-01-28T12:52:35.269Z,5.32
2023-01-28T12:55:25.588Z,3.85
2023-01-28T12:57:53.790Z,6.57
2023-01-28T13:00:40.850Z,6.10
2023-01-28T13:03:16.682Z,4.57
2023-01-28T13:05:46.758Z,4.70
2023-01-28T13:08:27.191Z,5.43
2023-01-28T13:10:54.727Z,4.20
2023-01-28T13:13:37.334Z,4.00
2023-01-28T13:16:05.123Z,4.93
2023-01-28T13:18:41.467Z,4.40
2023-01-28T13:21:32.535Z,3.83
2023-01-28T13:24:12.158Z,3.95
2023-01-28T13:26:57.272Z,4.05
2023-01-28T13:29:32.044Z,3.90
2023-01-28T13:32:00.584Z,4.15
2023-01-28T13:34:34.509Z,4.72
2023-01-28T13:37:14.709Z,4.35
2023-01-28T13:39:50.002Z,4.20
2023-01-28T13:42:19.806Z,5.30
2023-01-28T13:44:46.578Z,4.45
2023-01-28T13:47:15.289Z,4.72
2023-01-28T13:49:43.228Z,4.55
2023-01-28T13:52:14.643Z,4.13
2023-01-28T13:54:51.940Z,5.00
2023-01-28T13:57:46.532Z,3.40
2023-01-28T14:00:45.381Z,4.30
2023-01-28T14:03:29.781Z,3.92
2023-01-28T14:06:03.022Z,3.75
2023-01-28T14:08:57.195Z,3.97
2023-01-28T14:11:58.058Z,3.25
2023-01-28T14:14:24.829Z,3.33
2023-01-28T14:17:13.703Z,3.50
2023-01-28T14:19:40.428Z,3.50
2023-01-28T14:22:08.226Z,3.00
2023-01-28T14:24:34.990Z,3.90
2023-01-28T14:27:13.937Z,4.07
2023-01-28T14:30:08.317Z,3.58
2023-01-28T14:32:35.096Z,3.40
2023-01-28T14:35:07.163Z,4.10
2023-01-28T14:37:33.909Z,3.38
2023-01-28T14:40:06.266Z,3.55
2023-01-28T14:42:37.923Z,3.70
2023-01-28T14:45:20.206Z,3.83
2023-01-28T14:47:56.235Z,4.10
2023-01-28T14:50:38.353Z,3.38
2023-01-28T14:53:37.027Z,3.85
2023-01-28T14:56:25.508Z,4.25
2023-01-28T14:59:01.505Z,4.00
2023-01-28T15:01:29.785Z,3.50
2023-01-28T15:03:56.733Z,3.55
2023-01-28T15:06:24.870Z,3.67
2023-01-28T15:08:52.627Z,3.92
2023-01-28T15:11:24.322Z,3.38
2023-01-28T15:13:57.548Z,4.22
2023-01-28T15:16:29.110Z,3.15
2023-01-28T15:18:56.483Z,4.30
2023-01-28T15:21:24.418Z,4.05
2023-01-28T15:23:53.664Z,3.50
2023-01-28T15:26:24.973Z,3.55
2023-01-28T15:28:52.031Z,3.17
2023-01-28T15:31:26.912Z,4.03
2023-01-28T15:34:16.570Z,3.78
2023-01-28T15:36:43.403Z,3.65
2023-01-28T15:39:20.286Z,3.40
2023-01-28T15:42:06.455Z,4.63
2023-01-28T15:44:43.741Z,4.07
2023-01-28T15:47:24.966Z,3.55
2023-01-28T15:49:56.937Z,3.70
2023-01-28T15:52:30.759Z,3.97
2023-01-28T15:54:57.508Z,4.53
2023-01-28T15:57:34.669Z,4.65
2023-01-28T16:00:07.439Z,4.55
2023-01-28T16:02:44.630Z,4.30
2023-01-28T16:05:33.255Z,4.47
2023-01-28T16:08:02.628Z,5.15
2023-01-28T16:10:29.691Z,4.65
2023-01-28T16:13:11.255Z,5.47
2023-01-28T16:15:39.258Z,5.65
2023-01-28T16:18:06.146Z,5.10
2023-01-28T16:20:32.925Z,5.53
2023-01-28T16:23:03.939Z,4.82
2023-01-28T16:25:32.575Z,4.85
2023-01-28T16:28:00.244Z,5.15
2023-01-28T16:30:27.494Z,4.90
2023-01-28T16:32:58.541Z,5.13
2023-01-28T16:35:38.004Z,4.68
2023-01-28T16:38:17.066Z,5.47
2023-01-28T16:40:47.248Z,5.38
2023-01-28T16:43:14.854Z,5.15
2023-01-28T16:45:42.072Z,4.93
2023-01-28T16:48:08.892Z,5.97
2023-01-28T16:50:35.684Z,5.22
2023-01-28T16:53:02.449Z,6.00
2023-01-28T16:55:29.253Z,4.72
2023-01-28T16:57:56.449Z,5.22
2023-01-28T17:00:24.574Z,5.40
2023-01-28T17:02:51.991Z,5.15
2023-01-28T17:05:19.913Z,5.53
2023-01-28T17:07:49.103Z,5.20
2023-01-28T17:10:16.745Z,5.50
2023-01-28T17:12:44.230Z,5.75
2023-01-28T17:15:11.505Z,5.05
2023-01-28T17:17:38.296Z,5.22
2023-01-28T17:20:06.165Z,5.18
2023-01-28T17:22:32.934Z,6.07
2023-01-28T17:24:59.685Z,4.93
2023-01-28T17:27:27.290Z,5.45
2023-01-28T17:29:54.047Z,5.45
2023-01-28T17:32:20.815Z,5.15
2023-01-28T17:34:48.125Z,5.10
2023-01-28T17:37:14.952Z,5.13
2023-01-28T17:39:41.780Z,5.30
2023-01-28T17:42:08.525Z,5.25
2023-01-28T17:44:35.298Z,5.00
2023-01-28T17:47:02.134Z,5.07
2023-01-28T17:49:28.920Z,5.20
2023-01-28T17:51:55.724Z,4.82
2023-01-28T17:54:24.195Z,4.53
2023-01-28T17:56:51.090Z,4.78
2023-01-28T17:59:17.962Z,4.65
2023-01-28T18:01:44.888Z,4.47
2023-01-28T18:04:13.078Z,5.47
2023-01-28T18:06:40.032Z,4.63
2023-01-28T18:09:07.284Z,4.97
2023-01-28T18:11:34.130Z,5.57
2023-01-28T18:14:00.972Z,6.10
2023-01-28T18:16:27.754Z,4.63
2023-01-28T18:18:54.500Z,5.43
2023-01-28T18:21:54.170Z,5.60
2023-01-28T18:24:25.247Z,4.93
2023-01-28T18:26:52.642Z,4.88
2023-01-28T18:29:20.620Z,5.07
2023-01-28T18:31:48.320Z,4.63
2023-01-28T18:34:15.295Z,4.70
2023-01-28T18:36:42.249Z,4.53
2023-01-28T18:39:15.686Z,5.50
2023-01-28T18:41:42.643Z,5.18
2023-01-28T18:44:10.164Z,4.63
2023-01-28T18:46:37.130Z,5.50
2023-01-28T18:49:03.919Z,4.95
2023-01-28T18:51:31.171Z,4.88
2023-01-28T18:53:58.902Z,5.07
2023-01-28T18:56:26.576Z,4.82
2023-01-28T18:58:57.787Z,5.55
2023-01-28T19:01:24.661Z,5.80
2023-01-28T19:03:51.494Z,5.53
2023-01-28T19:06:18.352Z,5.97
2023-01-28T19:08:45.303Z,5.70
2023-01-28T19:11:12.056Z,5.30
2023-01-28T19:13:38.923Z,6.00
2023-01-28T19:16:06.022Z,5.00
2023-01-28T19:18:32.860Z,5.45
2023-01-28T19:21:04.174Z,6.35
2023-01-28T19:23:40.956Z,6.32
2023-01-28T19:26:16.995Z,6.60
2023-01-28T19:28:43.791Z,6.28
2023-01-28T19:31:10.647Z,6.70
2023-01-28T19:33:37.440Z,6.80
2023-01-28T19:36:04.432Z,7.25
2023-01-28T19:38:31.213Z,6.85
2023-01-28T19:41:03.692Z,6.40
2023-01-28T19:43:30.584Z,6.22
2023-01-28T19:46:02.104Z,6.63
2023-01-28T19:48:29.450Z,6.88
2023-01-28T19:50:56.407Z,6.15
2023-01-28T19:53:23.393Z,7.10
2023-01-28T19:55:52.170Z,6.78
2023-01-28T19:58:19.268Z,9.02
2023-01-28T20:00:45.981Z,10.73
2023-01-28T20:03:12.862Z,9.95
2023-01-28T20:05:39.669Z,12.23
2023-01-28T20:08:06.520Z,10.90
2023-01-28T20:10:33.339Z,10.52
2023-01-28T20:13:00.254Z,11.80
2023-01-28T20:15:27.034Z,13.57
2023-01-28T20:17:54.421Z,13.27
2023-01-28T20:20:21.185Z,12.05
2023-01-28T20:22:47.963Z,12.85
2023-01-28T20:25:16.513Z,11.82
2023-01-28T20:27:43.515Z,11.55
2023-01-28T20:30:11.294Z,11.82
2023-01-28T20:32:38.114Z,11.45
2023-01-28T20:35:05.082Z,12.48
2023-01-28T20:37:31.883Z,13.68
2023-01-28T20:39:58.767Z,14.55
2023-01-28T20:42:25.524Z,13.88
2023-01-28T20:44:52.370Z,12.75
2023-01-28T20:47:19.106Z,13.25
2023-01-28T20:49:45.854Z,14.15
2023-01-28T20:52:12.640Z,13.50
2023-01-28T20:54:39.468Z,13.40
2023-01-28T20:57:06.200Z,12.15
2023-01-28T20:59:32.999Z,11.85
2023-01-28T21:02:00.718Z,14.00
2023-01-28T21:04:27.703Z,12.35
2023-01-28T21:06:54.473Z,13.02
2023-01-28T21:09:22.657Z,13.93
2023-01-28T21:11:49.395Z,13.32
2023-01-28T21:14:17.036Z,12.25
2023-01-28T21:16:44.738Z,12.15
2023-01-28T21:19:11.622Z,12.00
2023-01-28T21:21:42.504Z,12.10
2023-01-28T21:24:11.433Z,12.23
2023-01-28T21:27:41.424Z,13.88
2023-01-28T21:30:09.296Z,10.63
2023-01-28T21:32:36.168Z,9.77
2023-01-28T21:35:03.261Z,10.40
2023-01-28T21:37:30.288Z,11.68
2023-01-28T21:39:57.074Z,12.07
2023-01-28T21:42:23.935Z,12.02
2023-01-28T21:44:50.837Z,11.30
2023-01-28T21:47:17.951Z,11.93
2023-01-28T21:49:44.846Z,12.77
2023-01-28T21:52:12.665Z,12.02
2023-01-28T21:54:39.558Z,12.40
2023-01-28T21:57:06.338Z,12.80
2023-01-28T21:59:33.348Z,11.73
2023-01-28T22:02:01.816Z,11.23
2023-01-28T22:04:36.523Z,12.15
2023-01-28T22:07:04.825Z,10.60
2023-01-28T22:09:33.688Z,11.05
2023-01-28T22:12:01.408Z,9.32
2023-01-28T22:14:28.540Z,9.70
2023-01-28T22:16:55.399Z,11.48
2023-01-28T22:19:22.361Z,10.52
2023-01-28T22:21:49.290Z,10.35
2023-01-28T22:24:20.715Z,11.40
2023-01-28T22:26:47.924Z,11.07
2023-01-28T22:29:16.164Z,11.65
2023-01-28T22:31:44.805Z,11.52
2023-01-28T22:34:11.787Z,10.70
2023-01-28T22:36:38.656Z,9.80
2023-01-28T22:39:07.045Z,9.88
2023-01-28T22:41:34.145Z,10.65
2023-01-28T22:44:01.712Z,9.90
2023-01-28T22:46:28.519Z,10.75
2023-01-28T22:48:55.360Z,9.98
2023-01-28T22:51:23.910Z,10.57
2023-01-28T22:53:51.031Z,10.43
2023-01-28T22:56:19.538Z,9.68
2023-01-28T22:58:49.077Z,9.80
2023-01-28T23:01:16.020Z,11.10
2023-01-28T23:03:47.391Z,9.25
2023-01-28T23:06:15.927Z,8.85
2023-01-28T23:08:42.911Z,10.45
2023-01-28T23:11:15.646Z,9.07
2023-01-28T23:14:02.080Z,9.13
2023-01-28T23:16:49.754Z,9.52
2023-01-28T23:19:35.297Z,9.65
2023-01-28T23:22:20.782Z,11.57
2023-01-28T23:24:47.580Z,10.95
2023-01-28T23:27:14.379Z,10.75
2023-01-28T23:29:41.795Z,9.93
2023-01-28T23:32:10.821Z,9.80
2023-01-28T23:34:39.410Z,10.10
2023-01-28T23:37:07.505Z,9.38
2023-01-28T23:39:34.691Z,9.65
2023-01-28T23:42:14.534Z,9.40
2023-01-28T23:44:41.430Z,8.18
2023-01-28T23:47:08.325Z,8.75
2023-01-28T23:49:35.266Z,8.57
2023-01-28T23:52:02.938Z,9.45
2023-01-28T23:54:30.015Z,9.63
2023-01-28T23:56:56.834Z,9.32
2023-01-28T23:59:24.436Z,9.02
